createdAt,value
2018-11-25T00:00:40.007Z,53.85
2018-11-25T00:01:40.214Z,54.16
2018-11-25T00:02:40.434Z,54.56
2018-11-25T00:03:40.021Z,54.46
2018-11-25T00:06:02.600Z,54.36
2018-11-25T00:07:02.473Z,54.46
2018-11-25T00:08:02.374Z,53.75
2018-11-25T00:09:02.633Z,53.75
2018-11-25T00:10:02.606Z,53.96
2018-11-25T00:11:02.400Z,53.96
2018-11-25T00:12:02.585Z,53.55
2018-11-25T00:13:02.581Z,53.65
2018-11-25T00:14:02.421Z,53.85
2018-11-25T00:15:02.333Z,53.75
2018-11-25T00:16:02.537Z,53.55
2018-11-25T00:17:02.446Z,53.55
2018-11-25T00:18:02.614Z,53.45
2018-11-25T00:19:02.251Z,53.25
2018-11-25T00:21:14.364Z,53.45
2018-11-25T00:22:13.949Z,53.55
2018-11-25T00:23:14.159Z,53.55
2018-11-25T00:24:14.063Z,53.55
2018-11-25T00:25:13.969Z,53.34
2018-11-25T00:26:13.864Z,53.34
2018-11-25T00:27:14.632Z,53.25
2018-11-25T00:28:13.992Z,53.14
2018-11-25T00:29:13.854Z,53.34
2018-11-25T00:30:14.109Z,53.02
2018-11-25T00:31:14.016Z,53.05
2018-11-25T00:32:14.237Z,52.94
2018-11-25T00:33:13.817Z,52.94
2018-11-25T00:34:14.055Z,53.14
2018-11-25T00:36:26.657Z,53.34
2018-11-25T00:37:26.348Z,53.34
2018-11-25T00:38:26.257Z,53.22
2018-11-25T00:39:26.172Z,53.45
2018-11-25T00:40:26.084Z,53.65
2018-11-25T00:41:26.288Z,53.25
2018-11-25T00:42:26.616Z,53.25
2018-11-25T00:43:26.098Z,53.25
2018-11-25T00:44:26.312Z,53.45
2018-11-25T00:45:26.505Z,53.45
2018-11-25T00:46:26.123Z,53.45
2018-11-25T00:47:26.021Z,53.45
2018-11-25T00:48:26.235Z,53.55
2018-11-25T00:49:26.137Z,53.45
2018-11-25T00:50:26.061Z,53.45
2018-11-25T00:52:38.487Z,53.34
2018-11-25T00:53:38.636Z,53.85
2018-11-25T00:54:38.263Z,53.55
2018-11-25T00:55:38.167Z,53.65
2018-11-25T00:56:38.371Z,53.34
2018-11-25T00:57:38.278Z,53.65
2018-11-25T00:58:38.500Z,53.65
2018-11-25T00:59:38.093Z,53.42
2018-11-25T01:00:38.308Z,53.65
2018-11-25T01:01:38.512Z,53.96
2018-11-25T01:02:38.635Z,53.34
2018-11-25T01:03:38.016Z,53.34
2018-11-25T01:04:38.536Z,53.22
2018-11-25T01:05:38.135Z,53.25
2018-11-25T01:07:51.657Z,53.05
2018-11-25T01:08:51.359Z,53.45
2018-11-25T01:09:51.271Z,53.45
2018-11-25T01:10:51.478Z,53.14
2018-11-25T01:11:51.646Z,53.14
2018-11-25T01:12:51.644Z,53.12
2018-11-25T01:13:51.498Z,52.84
2018-11-25T01:14:51.648Z,52.74
2018-11-25T01:15:51.313Z,52.74
2018-11-25T01:16:51.519Z,53.05
2018-11-25T01:17:51.659Z,52.94
2018-11-25T01:18:51.334Z,52.92
2018-11-25T01:19:51.680Z,53.22
2018-11-25T01:20:51.148Z,52.84
2018-11-25T01:23:03.684Z,52.74
2018-11-25T01:24:03.448Z,52.74
2018-11-25T01:25:03.661Z,52.74
2018-11-25T01:26:03.566Z,52.82
2018-11-25T01:27:03.667Z,53.34
2018-11-25T01:28:03.669Z,53.34
2018-11-25T01:29:03.679Z,52.94
2018-11-25T01:30:03.490Z,53.45
2018-11-25T01:31:03.394Z,52.94
2018-11-25T01:32:03.694Z,53.25
2018-11-25T01:33:03.673Z,53.14
2018-11-25T01:34:03.664Z,52.54
2018-11-25T01:35:03.632Z,52.84
2018-11-25T01:36:03.535Z,53.25
2018-11-25T01:38:15.732Z,52.84
2018-11-25T01:39:15.546Z,53.05
2018-11-25T01:40:15.703Z,52.84
2018-11-25T01:41:15.346Z,52.64
2018-11-25T01:42:15.277Z,52.34
2018-11-25T01:43:15.464Z,52.14
2018-11-25T01:44:15.374Z,52.74
2018-11-25T01:45:15.280Z,52.84
2018-11-25T01:46:15.687Z,52.74
2018-11-25T01:47:15.396Z,52.14
2018-11-25T01:48:15.295Z,52.23
2018-11-25T01:49:15.286Z,52.23
2018-11-25T01:50:15.419Z,52.23
2018-11-25T01:51:15.338Z,52.64
2018-11-25T01:52:15.539Z,52.54
2018-11-25T01:54:27.696Z,52.64
2018-11-25T01:55:27.541Z,52.64
2018-11-25T01:56:27.695Z,52.54
2018-11-25T01:57:27.345Z,52.61
2018-11-25T01:58:27.565Z,52.44
2018-11-25T01:59:27.465Z,52.54
2018-11-25T02:00:27.680Z,52.44
2018-11-25T02:01:27.276Z,52.14
2018-11-25T02:02:27.744Z,52.34
2018-11-25T02:03:28.079Z,52.14
2018-11-25T02:04:27.295Z,52.14
2018-11-25T02:05:27.511Z,52.23
2018-11-25T02:06:27.436Z,52.54
2018-11-25T02:07:27.342Z,52.54
2018-11-25T02:09:53.724Z,52.54
2018-11-25T02:10:53.707Z,52.72
2018-11-25T02:11:53.706Z,52.74
2018-11-25T02:12:53.589Z,52.64
2018-11-25T02:13:53.498Z,52.94
2018-11-25T02:14:53.708Z,52.74
2018-11-25T02:15:53.765Z,52.54
2018-11-25T02:16:53.528Z,52.54
2018-11-25T02:17:53.400Z,52.54
2018-11-25T02:18:53.612Z,52.64
2018-11-25T02:19:53.535Z,52.64
2018-11-25T02:20:53.440Z,52.84
2018-11-25T02:21:53.764Z,52.84
2018-11-25T02:22:53.561Z,52.84
2018-11-25T02:25:05.652Z,52.64
2018-11-25T02:26:05.720Z,52.64
2018-11-25T02:27:05.720Z,52.84
2018-11-25T02:28:05.381Z,52.64
2018-11-25T02:29:05.273Z,52.61
2018-11-25T02:30:05.490Z,52.23
2018-11-25T02:31:05.382Z,52.44
2018-11-25T02:32:05.604Z,52.54
2018-11-25T02:33:05.511Z,52.64
2018-11-25T02:34:05.413Z,52.34
2018-11-25T02:35:05.323Z,52.74
2018-11-25T02:36:05.224Z,52.23
2018-11-25T02:37:05.429Z,52.44
2018-11-25T02:38:05.636Z,52.74
2018-11-25T02:40:44.477Z,52.14
2018-11-25T02:41:43.467Z,51.83
2018-11-25T02:42:43.355Z,51.83
2018-11-25T02:43:43.739Z,52.03
2018-11-25T02:44:43.175Z,52.14
2018-11-25T02:45:44.003Z,51.93
2018-11-25T02:46:45.800Z,52.14
2018-11-25T02:47:43.819Z,51.83
2018-11-25T02:48:44.320Z,51.83
2018-11-25T02:49:44.245Z,52.23
2018-11-25T02:50:43.214Z,51.91
2018-11-25T02:51:43.107Z,52.34
2018-11-25T02:52:44.612Z,52.23
2018-11-25T02:53:43.229Z,51.93
2018-11-25T02:55:55.671Z,51.83
2018-11-25T02:56:55.544Z,52.03
2018-11-25T02:57:55.485Z,51.81
2018-11-25T02:58:55.348Z,51.83
2018-11-25T02:59:55.253Z,52.03
2018-11-25T03:00:56.077Z,51.63
2018-11-25T03:01:55.368Z,52.01
2018-11-25T03:02:55.274Z,51.83
2018-11-25T03:03:55.796Z,51.83
2018-11-25T03:04:55.392Z,52.03
2018-11-25T03:05:55.818Z,52.23
2018-11-25T03:06:55.767Z,52.03
2018-11-25T03:07:55.418Z,52.23
2018-11-25T03:08:55.315Z,51.83
2018-11-25T03:11:07.796Z,51.93
2018-11-25T03:12:07.628Z,51.83
2018-11-25T03:13:08.456Z,52.03
2018-11-25T03:14:07.745Z,52.23
2018-11-25T03:15:07.343Z,52.11
2018-11-25T03:16:07.556Z,52.34
2018-11-25T03:17:07.768Z,52.64
2018-11-25T03:18:07.776Z,52.44
2018-11-25T03:19:07.590Z,52.14
2018-11-25T03:20:07.481Z,52.14
2018-11-25T03:21:07.387Z,52.44
2018-11-25T03:22:07.286Z,52.31
2018-11-25T03:23:07.775Z,52.41
2018-11-25T03:24:07.404Z,52.23
2018-11-25T03:25:07.309Z,52.23
2018-11-25T03:27:19.713Z,52.23
2018-11-25T03:28:19.618Z,52.14
2018-11-25T03:29:19.523Z,52.44
2018-11-25T03:30:19.737Z,52.14
2018-11-25T03:31:19.335Z,52.14
2018-11-25T03:32:19.549Z,52.21
2018-11-25T03:33:19.788Z,52.34
2018-11-25T03:34:19.370Z,52.14
2018-11-25T03:35:19.575Z,52.23
2018-11-25T03:36:19.485Z,52.34
2018-11-25T03:37:19.389Z,52.34
2018-11-25T03:38:19.600Z,52.54
2018-11-25T03:39:19.505Z,52.14
2018-11-25T03:40:19.413Z,52.03
2018-11-25T03:42:42.610Z,52.03
2018-11-25T03:43:42.790Z,52.54
2018-11-25T03:44:42.371Z,52.54
2018-11-25T03:45:42.296Z,51.93
2018-11-25T03:46:42.507Z,52.23
2018-11-25T03:47:42.416Z,52.34
2018-11-25T03:48:42.322Z,52.14
2018-11-25T03:49:42.817Z,52.34
2018-11-25T03:50:42.453Z,52.44
2018-11-25T03:51:42.336Z,52.34
2018-11-25T03:52:42.241Z,52.21
2018-11-25T03:53:42.142Z,52.34
2018-11-25T03:54:42.345Z,52.23
2018-11-25T03:55:42.558Z,52.34
2018-11-25T03:57:54.822Z,51.71
2018-11-25T03:58:54.567Z,51.83
2018-11-25T03:59:54.462Z,51.73
2018-11-25T04:00:54.678Z,51.50
2018-11-25T04:01:54.286Z,51.50
2018-11-25T04:02:54.804Z,52.34
2018-11-25T04:03:54.717Z,51.83
2018-11-25T04:04:54.295Z,51.73
2018-11-25T04:05:54.505Z,51.93
2018-11-25T04:06:54.411Z,51.93
2018-11-25T04:07:54.639Z,51.63
2018-11-25T04:08:54.219Z,51.63
2018-11-25T04:09:54.738Z,51.53
2018-11-25T04:10:54.335Z,51.71
2018-11-25T04:13:07.834Z,51.50
2018-11-25T04:14:07.575Z,51.63
2018-11-25T04:15:07.486Z,51.63
2018-11-25T04:16:07.394Z,51.32
2018-11-25T04:17:07.286Z,51.63
2018-11-25T04:18:07.813Z,51.43
2018-11-25T04:19:07.414Z,50.82
2018-11-25T04:20:07.623Z,51.63
2018-11-25T04:21:07.529Z,51.93
2018-11-25T04:22:07.445Z,50.92
2018-11-25T04:23:07.338Z,51.40
2018-11-25T04:24:07.246Z,51.43
2018-11-25T04:25:07.454Z,50.80
2018-11-25T04:26:07.671Z,50.82
2018-11-25T04:28:19.868Z,50.92
2018-11-25T04:29:19.666Z,50.92
2018-11-25T04:30:19.855Z,50.92
2018-11-25T04:31:19.778Z,51.03
2018-11-25T04:32:19.690Z,51.03
2018-11-25T04:33:19.588Z,51.63
2018-11-25T04:34:19.856Z,50.72
2018-11-25T04:35:19.870Z,51.53
2018-11-25T04:36:19.616Z,50.92
2018-11-25T04:37:19.852Z,50.92
2018-11-25T04:38:19.726Z,50.92
2018-11-25T04:39:19.854Z,50.92
2018-11-25T04:40:19.856Z,50.92
2018-11-25T04:41:19.753Z,51.53
2018-11-25T04:43:33.864Z,50.90
2018-11-25T04:44:31.901Z,50.92
2018-11-25T04:45:31.656Z,51.03
2018-11-25T04:46:32.180Z,50.92
2018-11-25T04:47:31.773Z,50.92
2018-11-25T04:48:31.676Z,50.92
2018-11-25T04:49:31.864Z,50.92
2018-11-25T04:50:31.798Z,51.32
2018-11-25T04:51:31.703Z,50.92
2018-11-25T04:52:31.609Z,51.32
2018-11-25T04:53:31.821Z,51.03
2018-11-25T04:54:31.731Z,51.23
2018-11-25T04:55:31.901Z,51.12
2018-11-25T04:56:31.540Z,51.53
2018-11-25T04:58:43.911Z,51.32
2018-11-25T04:59:43.890Z,51.32
2018-11-25T05:00:43.875Z,51.12
2018-11-25T05:01:43.665Z,51.12
2018-11-25T05:02:43.883Z,51.23
2018-11-25T05:03:43.779Z,51.32
2018-11-25T05:04:43.881Z,51.12
2018-11-25T05:05:43.895Z,50.92
2018-11-25T05:06:43.793Z,51.30
2018-11-25T05:07:43.700Z,51.32
2018-11-25T05:08:43.889Z,51.10
2018-11-25T05:09:43.821Z,51.32
2018-11-25T05:10:43.733Z,51.12
2018-11-25T05:11:43.637Z,51.12
2018-11-25T05:12:43.534Z,51.12
2018-11-25T05:14:56.903Z,51.12
2018-11-25T05:15:56.900Z,51.30
2018-11-25T05:16:56.675Z,51.12
2018-11-25T05:17:56.587Z,51.12
2018-11-25T05:18:56.479Z,51.23
2018-11-25T05:19:56.695Z,51.23
2018-11-25T05:20:56.895Z,51.32
2018-11-25T05:21:56.443Z,51.32
2018-11-25T05:22:56.719Z,51.32
2018-11-25T05:23:56.634Z,51.23
2018-11-25T05:24:56.538Z,51.32
2018-11-25T05:25:56.442Z,51.12
2018-11-25T05:26:56.913Z,51.12
2018-11-25T05:27:56.543Z,51.32
2018-11-25T05:30:08.640Z,51.12
2018-11-25T05:31:08.559Z,51.12
2018-11-25T05:32:08.449Z,50.92
2018-11-25T05:33:08.358Z,51.32
2018-11-25T05:34:08.567Z,51.32
2018-11-25T05:35:08.472Z,51.10
2018-11-25T05:36:08.922Z,50.92
2018-11-25T05:37:08.282Z,51.30
2018-11-25T05:38:08.491Z,50.92
2018-11-25T05:39:08.412Z,51.50
2018-11-25T05:40:08.307Z,51.32
2018-11-25T05:41:08.170Z,51.00
2018-11-25T05:42:08.728Z,51.23
2018-11-25T05:43:08.326Z,51.23
2018-11-25T05:45:19.917Z,50.90
2018-11-25T05:46:19.717Z,50.92
2018-11-25T05:47:19.923Z,51.53
2018-11-25T05:48:20.758Z,51.10
2018-11-25T05:49:19.745Z,51.00
2018-11-25T05:50:19.925Z,51.12
2018-11-25T05:51:19.929Z,51.12
2018-11-25T05:52:19.925Z,51.10
2018-11-25T05:53:19.933Z,51.23
2018-11-25T05:54:19.914Z,51.12
2018-11-25T05:55:19.967Z,51.32
2018-11-25T05:56:19.686Z,51.12
2018-11-25T05:57:19.900Z,51.30
2018-11-25T05:58:19.974Z,51.43
2018-11-25T06:00:29.936Z,50.92
2018-11-25T06:01:29.939Z,50.92
2018-11-25T06:02:29.869Z,51.53
2018-11-25T06:03:29.777Z,51.40
2018-11-25T06:04:29.676Z,51.43
2018-11-25T06:05:29.938Z,51.23
2018-11-25T06:06:29.802Z,51.32
2018-11-25T06:07:29.702Z,51.40
2018-11-25T06:08:29.909Z,51.43
2018-11-25T06:09:29.816Z,51.40
2018-11-25T06:10:29.733Z,51.50
2018-11-25T06:11:29.933Z,51.20
2018-11-25T06:12:30.534Z,51.32
2018-11-25T06:13:29.947Z,51.53
2018-11-25T06:15:39.987Z,51.12
2018-11-25T06:16:39.906Z,51.32
2018-11-25T06:17:39.808Z,51.53
2018-11-25T06:18:39.971Z,51.53
2018-11-25T06:19:39.933Z,51.50
2018-11-25T06:20:39.840Z,51.43
2018-11-25T06:21:39.997Z,51.32
2018-11-25T06:22:39.984Z,51.30
2018-11-25T06:23:39.854Z,51.32
2018-11-25T06:24:39.808Z,51.43
2018-11-25T06:25:39.966Z,51.43
2018-11-25T06:26:39.899Z,51.43
2018-11-25T06:27:39.963Z,51.43
2018-11-25T06:28:39.693Z,51.43
2018-11-25T06:30:51.000Z,51.32
2018-11-25T06:31:50.998Z,51.53
2018-11-25T06:32:51.320Z,51.20
2018-11-25T06:33:50.893Z,51.23
2018-11-25T06:34:50.803Z,51.53
2018-11-25T06:35:50.974Z,51.12
2018-11-25T06:36:50.914Z,51.32
2018-11-25T06:37:50.822Z,51.12
2018-11-25T06:38:51.006Z,51.53
2018-11-25T06:39:50.975Z,51.32
2018-11-25T06:40:50.976Z,51.20
2018-11-25T06:41:52.589Z,51.30
2018-11-25T06:42:50.956Z,50.92
2018-11-25T06:43:50.977Z,51.32
2018-11-25T06:44:50.998Z,51.32
2018-11-25T06:47:02.011Z,51.53
2018-11-25T06:48:01.846Z,51.53
2018-11-25T06:49:01.991Z,51.53
2018-11-25T06:50:01.965Z,51.53
2018-11-25T06:51:01.993Z,51.53
2018-11-25T06:52:01.999Z,51.53
2018-11-25T06:53:02.005Z,51.32
2018-11-25T06:54:01.886Z,51.12
2018-11-25T06:55:01.790Z,51.30
2018-11-25T06:56:01.993Z,51.12
2018-11-25T06:57:02.034Z,51.12
2018-11-25T06:58:02.004Z,50.92
2018-11-25T06:59:02.005Z,52.03
2018-11-25T07:00:02.014Z,52.44
2018-11-25T07:02:12.002Z,53.65
2018-11-25T07:03:12.003Z,54.94
2018-11-25T07:04:12.005Z,54.56
2018-11-25T07:05:11.914Z,55.07
2018-11-25T07:06:11.805Z,54.83
2018-11-25T07:07:12.001Z,55.36
2018-11-25T07:08:12.055Z,55.07
2018-11-25T07:09:11.837Z,55.24
2018-11-25T07:10:12.017Z,55.24
2018-11-25T07:11:11.957Z,56.18
2018-11-25T07:12:12.069Z,55.54
2018-11-25T07:13:11.770Z,55.94
2018-11-25T07:14:11.981Z,56.45
2018-11-25T07:15:11.887Z,56.05
2018-11-25T07:17:22.110Z,56.35
2018-11-25T07:18:22.980Z,56.65
2018-11-25T07:19:21.961Z,56.56
2018-11-25T07:20:21.863Z,56.56
2018-11-25T07:21:22.021Z,56.96
2018-11-25T07:22:21.964Z,56.65
2018-11-25T07:23:22.025Z,56.05
2018-11-25T07:24:21.775Z,55.94
2018-11-25T07:25:21.984Z,55.85
2018-11-25T07:26:21.906Z,56.15
2018-11-25T07:27:22.734Z,56.35
2018-11-25T07:28:22.011Z,55.44
2018-11-25T07:29:21.927Z,55.44
2018-11-25T07:30:21.813Z,55.14
2018-11-25T07:32:43.467Z,55.74
2018-11-25T07:33:43.042Z,55.94
2018-11-25T07:34:43.058Z,56.05
2018-11-25T07:35:42.868Z,56.15
2018-11-25T07:36:43.072Z,55.72
2018-11-25T07:37:42.970Z,56.43
2018-11-25T07:38:42.868Z,56.32
2018-11-25T07:39:43.037Z,56.02
2018-11-25T07:40:43.049Z,56.23
2018-11-25T07:41:42.901Z,55.72
2018-11-25T07:42:42.811Z,55.82
2018-11-25T07:43:43.024Z,55.92
2018-11-25T07:44:42.925Z,56.02
2018-11-25T07:45:42.823Z,56.23
2018-11-25T07:47:53.395Z,55.72
2018-11-25T07:48:53.045Z,56.12
2018-11-25T07:49:53.046Z,56.63
2018-11-25T07:50:53.060Z,56.52
2018-11-25T07:51:53.078Z,55.82
2018-11-25T07:52:52.918Z,55.11
2018-11-25T07:53:53.050Z,55.41
2018-11-25T07:54:53.142Z,55.32
2018-11-25T07:55:52.939Z,55.41
2018-11-25T07:56:52.851Z,54.99
2018-11-25T07:57:53.115Z,54.81
2018-11-25T07:58:52.952Z,53.90
2018-11-25T07:59:52.881Z,54.08
2018-11-25T08:00:52.763Z,53.60
2018-11-25T08:03:03.065Z,52.76
2018-11-25T08:04:02.930Z,53.58
2018-11-25T08:05:03.149Z,53.58
2018-11-25T08:06:03.059Z,53.38
2018-11-25T08:07:02.953Z,56.88
2018-11-25T08:08:03.073Z,60.05
2018-11-25T08:14:50.140Z,45.05
2018-11-25T08:15:50.074Z,46.97
2018-11-25T08:18:00.097Z,53.92
2018-11-25T08:18:59.964Z,57.20
2018-11-25T08:20:00.085Z,59.74
2018-11-25T08:20:59.910Z,63.24
2018-11-25T08:21:59.979Z,65.05
2018-11-25T08:22:59.896Z,66.54
2018-11-25T08:24:00.048Z,68.84
2018-11-25T08:25:00.021Z,69.28
2018-11-25T08:25:59.924Z,69.79
2018-11-25T08:27:00.084Z,70.04
2018-11-25T08:28:00.023Z,70.55
2018-11-25T08:28:59.930Z,71.20
2018-11-25T08:30:00.096Z,71.85
2018-11-25T08:31:06.191Z,74.12
2018-11-25T08:32:01.107Z,73.30
2018-11-25T08:34:12.152Z,73.30
2018-11-25T08:35:11.956Z,73.64
2018-11-25T08:36:12.098Z,74.36
2018-11-25T08:37:12.107Z,75.09
2018-11-25T08:38:12.104Z,74.88
2018-11-25T08:39:12.103Z,74.88
2018-11-25T08:40:12.130Z,75.29
2018-11-25T08:41:12.620Z,75.12
2018-11-25T08:42:11.918Z,75.22
2018-11-25T08:43:11.836Z,75.32
2018-11-25T08:44:12.031Z,75.95
2018-11-25T08:45:11.949Z,75.84
2018-11-25T08:46:12.163Z,75.74
2018-11-25T08:47:12.112Z,75.95
2018-11-25T08:49:24.120Z,76.60
2018-11-25T08:50:22.115Z,77.11
2018-11-25T08:51:22.148Z,77.42
2018-11-25T08:52:22.124Z,77.67
2018-11-25T08:53:23.135Z,77.67
2018-11-25T08:54:22.162Z,77.53
2018-11-25T08:55:23.118Z,77.84
2018-11-25T08:56:22.122Z,77.87
2018-11-25T08:57:22.125Z,77.94
2018-11-25T08:58:22.068Z,77.84
2018-11-25T08:59:21.969Z,77.84
2018-11-25T09:00:23.106Z,77.73
2018-11-25T09:01:22.189Z,77.32
2018-11-25T09:03:45.243Z,77.73
2018-11-25T09:04:44.533Z,77.94
2018-11-25T09:05:44.413Z,77.84
2018-11-25T09:06:44.360Z,78.18
2018-11-25T09:07:44.563Z,78.39
2018-11-25T09:08:45.383Z,79.32
2018-11-25T09:09:45.211Z,80.08
2018-11-25T09:10:44.259Z,80.80
2018-11-25T09:11:44.484Z,81.11
2018-11-25T09:12:44.187Z,81.21
2018-11-25T09:13:44.304Z,81.32
2018-11-25T09:14:44.573Z,81.56
2018-11-25T09:15:44.207Z,81.63
2018-11-25T09:16:44.189Z,81.32
2018-11-25T09:19:08.085Z,81.35
2018-11-25T09:20:07.987Z,81.98
2018-11-25T09:21:08.185Z,82.04
2018-11-25T09:22:09.029Z,82.04
2018-11-25T09:23:08.226Z,82.08
2018-11-25T09:24:08.847Z,81.84
2018-11-25T09:25:08.143Z,81.87
2018-11-25T09:26:08.367Z,81.73
2018-11-25T09:27:08.194Z,81.63
2018-11-25T09:28:07.845Z,81.18
2018-11-25T09:29:08.180Z,81.07
2018-11-25T09:30:08.281Z,80.66
2018-11-25T09:31:07.865Z,80.21
2018-11-25T09:32:08.082Z,80.04
2018-11-25T09:34:31.160Z,79.04
2018-11-25T09:35:30.530Z,79.14
2018-11-25T09:36:30.356Z,78.01
2018-11-25T09:37:30.649Z,77.91
2018-11-25T09:38:31.159Z,78.01
2018-11-25T09:39:30.326Z,79.45
2018-11-25T09:40:30.659Z,78.83
2018-11-25T09:41:30.572Z,78.83
2018-11-25T09:42:30.473Z,78.35
2018-11-25T09:43:30.287Z,78.63
2018-11-25T09:44:30.587Z,78.42
2018-11-25T09:45:30.806Z,78.11
2018-11-25T09:46:30.256Z,78.31
2018-11-25T09:47:30.242Z,79.45
2018-11-25T09:49:39.942Z,78.31
2018-11-25T09:50:40.183Z,78.73
2018-11-25T09:51:39.754Z,78.31
2018-11-25T09:52:39.655Z,78.94
2018-11-25T09:53:39.865Z,78.83
2018-11-25T09:54:39.467Z,78.52
2018-11-25T09:55:39.677Z,78.42
2018-11-25T09:56:39.581Z,78.38
2018-11-25T09:57:39.488Z,77.66
2018-11-25T09:58:40.021Z,77.25
2018-11-25T09:59:39.608Z,77.56
2018-11-25T10:00:39.823Z,77.31
2018-11-25T10:01:39.413Z,77.11
2018-11-25T10:02:39.640Z,76.80
2018-11-25T10:05:13.222Z,77.01
2018-11-25T10:06:12.991Z,77.01
2018-11-25T10:07:12.750Z,76.59
2018-11-25T10:08:12.639Z,76.73
2018-11-25T10:09:12.558Z,77.22
2018-11-25T10:10:13.075Z,76.94
2018-11-25T10:11:12.972Z,77.56
2018-11-25T10:12:12.575Z,77.76
2018-11-25T10:13:12.449Z,77.66
2018-11-25T10:14:12.995Z,77.49
2018-11-25T10:15:12.605Z,78.11
2018-11-25T10:16:12.415Z,79.14
2018-11-25T10:17:13.028Z,78.83
2018-11-25T10:18:12.619Z,78.52
2018-11-25T10:20:34.535Z,79.55
2018-11-25T10:21:34.142Z,78.94
2018-11-25T10:22:34.057Z,78.52
2018-11-25T10:23:33.656Z,79.35
2018-11-25T10:24:33.544Z,78.83
2018-11-25T10:25:34.071Z,78.52
2018-11-25T10:26:33.976Z,78.52
2018-11-25T10:27:33.568Z,78.83
2018-11-25T10:28:34.255Z,78.94
2018-11-25T10:29:33.683Z,78.73
2018-11-25T10:30:33.902Z,78.94
2018-11-25T10:31:33.444Z,78.94
2018-11-25T10:32:33.710Z,79.14
2018-11-25T10:33:33.618Z,79.55
2018-11-25T10:35:56.220Z,78.83
2018-11-25T10:36:56.217Z,79.25
2018-11-25T10:37:55.043Z,79.04
2018-11-25T10:38:54.571Z,78.80
2018-11-25T10:39:54.855Z,78.80
2018-11-25T10:40:54.761Z,79.35
2018-11-25T10:41:55.258Z,79.55
2018-11-25T10:42:54.901Z,79.35
2018-11-25T10:43:54.785Z,79.41
2018-11-25T10:44:54.701Z,78.80
2018-11-25T10:45:54.601Z,79.00
2018-11-25T10:46:54.498Z,78.59
2018-11-25T10:47:56.559Z,78.45
2018-11-25T10:48:54.614Z,78.59
2018-11-25T10:51:05.299Z,78.80
2018-11-25T10:52:04.780Z,78.24
2018-11-25T10:53:04.987Z,77.94
2018-11-25T10:54:04.580Z,77.94
2018-11-25T10:55:04.484Z,77.83
2018-11-25T10:56:04.707Z,77.83
2018-11-25T10:57:04.606Z,77.94
2018-11-25T10:58:04.449Z,77.73
2018-11-25T10:59:05.244Z,78.28
2018-11-25T11:00:04.631Z,78.69
2018-11-25T11:01:04.430Z,79.72
2018-11-25T11:02:04.398Z,79.83
2018-11-25T11:03:04.663Z,79.97
2018-11-25T11:04:04.560Z,79.72
2018-11-25T11:06:16.281Z,80.04
2018-11-25T11:07:15.638Z,79.83
2018-11-25T11:08:15.939Z,79.83
2018-11-25T11:09:15.752Z,79.41
2018-11-25T11:10:15.713Z,78.86
2018-11-25T11:11:15.559Z,78.45
2018-11-25T11:12:16.258Z,78.18
2018-11-25T11:13:15.686Z,78.90
2018-11-25T11:14:15.890Z,79.21
2018-11-25T11:15:15.487Z,80.34
2018-11-25T11:16:15.697Z,79.93
2018-11-25T11:17:15.912Z,80.44
2018-11-25T11:18:15.514Z,80.14
2018-11-25T11:19:15.723Z,79.93
2018-11-25T11:21:37.305Z,80.48
2018-11-25T11:22:36.633Z,80.69
2018-11-25T11:23:37.152Z,80.79
2018-11-25T11:24:36.752Z,80.69
2018-11-25T11:25:36.983Z,80.18
2018-11-25T11:26:36.888Z,80.14
2018-11-25T11:27:37.085Z,80.07
2018-11-25T11:28:37.000Z,79.72
2018-11-25T11:29:37.220Z,79.31
2018-11-25T11:30:36.807Z,80.04
2018-11-25T11:31:36.718Z,80.48
2018-11-25T11:32:36.607Z,80.79
2018-11-25T11:33:36.501Z,80.79
2018-11-25T11:34:37.054Z,80.79
2018-11-25T11:36:47.605Z,80.79
2018-11-25T11:37:47.224Z,80.69
2018-11-25T11:38:46.823Z,80.79
2018-11-25T11:39:46.700Z,81.00
2018-11-25T11:40:46.599Z,80.79
2018-11-25T11:41:46.822Z,80.79
2018-11-25T11:42:47.048Z,81.00
2018-11-25T11:43:47.236Z,80.90
2018-11-25T11:44:46.834Z,81.00
2018-11-25T11:45:46.738Z,81.10
2018-11-25T11:46:46.639Z,81.82
2018-11-25T11:47:46.498Z,81.82
2018-11-25T11:48:47.069Z,81.48
2018-11-25T11:49:47.003Z,80.69
2018-11-25T11:51:58.371Z,80.34
2018-11-25T11:52:58.297Z,80.24
2018-11-25T11:53:58.284Z,80.18
2018-11-25T11:54:58.344Z,81.00
2018-11-25T11:55:58.300Z,81.00
2018-11-25T11:56:58.300Z,80.90
2018-11-25T11:57:58.205Z,80.58
2018-11-25T11:58:58.310Z,80.38
2018-11-25T11:59:58.326Z,80.48
2018-11-25T12:00:59.310Z,80.48
2018-11-25T12:01:58.131Z,80.79
2018-11-25T12:02:58.310Z,80.90
2018-11-25T12:03:58.558Z,81.31
2018-11-25T12:04:58.154Z,81.41
2018-11-25T12:07:09.965Z,81.41
2018-11-25T12:08:08.924Z,81.82
2018-11-25T12:09:08.825Z,81.41
2018-11-25T12:10:08.737Z,81.10
2018-11-25T12:11:08.953Z,81.35
2018-11-25T12:12:08.846Z,81.51
2018-11-25T12:13:09.067Z,81.31
2018-11-25T12:14:08.661Z,81.41
2018-11-25T12:15:08.864Z,81.00
2018-11-25T12:16:08.782Z,81.31
2018-11-25T12:17:08.682Z,80.90
2018-11-25T12:18:08.587Z,81.31
2018-11-25T12:19:09.330Z,81.21
2018-11-25T12:20:08.701Z,81.10
2018-11-25T12:22:19.380Z,80.79
2018-11-25T12:23:19.329Z,80.79
2018-11-25T12:24:18.769Z,80.96
2018-11-25T12:25:18.987Z,80.90
2018-11-25T12:26:18.880Z,80.55
2018-11-25T12:27:18.788Z,80.86
2018-11-25T12:28:18.997Z,80.04
2018-11-25T12:29:18.537Z,80.24
2018-11-25T12:30:19.335Z,79.83
2018-11-25T12:31:18.717Z,80.18
2018-11-25T12:32:18.515Z,80.65
2018-11-25T12:33:18.503Z,80.55
2018-11-25T12:34:18.751Z,80.96
2018-11-25T12:35:18.478Z,81.10
2018-11-25T12:37:35.741Z,81.10
2018-11-25T12:38:30.379Z,81.31
2018-11-25T12:39:29.006Z,81.31
2018-11-25T12:40:29.219Z,81.21
2018-11-25T12:41:29.132Z,81.31
2018-11-25T12:42:29.058Z,81.31
2018-11-25T12:43:29.405Z,81.51
2018-11-25T12:44:29.426Z,81.21
2018-11-25T12:45:29.060Z,81.21
2018-11-25T12:46:28.958Z,81.62
2018-11-25T12:47:28.866Z,81.31
2018-11-25T12:48:29.076Z,81.82
2018-11-25T12:49:29.287Z,81.41
2018-11-25T12:50:28.885Z,81.41
2018-11-25T12:52:40.060Z,81.93
2018-11-25T12:53:40.373Z,81.68
2018-11-25T12:54:40.182Z,81.31
2018-11-25T12:55:39.783Z,81.72
2018-11-25T12:56:39.691Z,81.82
2018-11-25T12:57:39.904Z,82.03
2018-11-25T12:58:39.795Z,82.24
2018-11-25T12:59:39.711Z,82.45
2018-11-25T13:00:40.245Z,82.55
2018-11-25T13:01:39.832Z,83.27
2018-11-25T13:02:39.735Z,82.65
2018-11-25T13:03:39.608Z,82.45
2018-11-25T13:04:39.848Z,82.24
2018-11-25T13:05:45.946Z,82.55
2018-11-25T13:08:04.392Z,82.45
2018-11-25T13:09:04.348Z,82.59
2018-11-25T13:10:03.950Z,82.75
2018-11-25T13:11:03.858Z,83.17
2018-11-25T13:12:04.070Z,82.96
2018-11-25T13:13:03.632Z,83.00
2018-11-25T13:14:03.878Z,83.06
2018-11-25T13:15:03.786Z,83.20
2018-11-25T13:16:03.616Z,83.27
2018-11-25T13:17:04.207Z,83.58
2018-11-25T13:18:03.814Z,83.51
2018-11-25T13:19:03.715Z,83.31
2018-11-25T13:20:03.592Z,83.51
2018-11-25T13:21:03.835Z,83.17
2018-11-25T13:23:25.446Z,83.68
2018-11-25T13:24:25.039Z,83.31
2018-11-25T13:25:24.949Z,83.48
2018-11-25T13:26:25.160Z,83.58
2018-11-25T13:27:25.066Z,83.37
2018-11-25T13:28:24.986Z,83.37
2018-11-25T13:29:24.983Z,83.37
2018-11-25T13:30:24.782Z,83.17
2018-11-25T13:31:24.680Z,83.06
2018-11-25T13:32:24.912Z,83.27
2018-11-25T13:33:25.118Z,82.96
2018-11-25T13:34:24.638Z,82.96
2018-11-25T13:35:24.916Z,83.17
2018-11-25T13:36:24.827Z,83.17
2018-11-25T13:38:36.006Z,83.93
2018-11-25T13:39:34.992Z,83.83
2018-11-25T13:40:34.892Z,83.86
2018-11-25T13:41:34.799Z,84.65
2018-11-25T13:42:35.002Z,84.55
2018-11-25T13:43:34.912Z,84.65
2018-11-25T13:44:35.122Z,84.03
2018-11-25T13:45:34.688Z,84.38
2018-11-25T13:46:34.943Z,84.34
2018-11-25T13:47:34.844Z,85.00
2018-11-25T13:48:35.061Z,84.03
2018-11-25T13:49:34.649Z,84.96
2018-11-25T13:50:35.431Z,84.03
2018-11-25T13:51:34.773Z,84.13
2018-11-25T13:53:47.192Z,84.23
2018-11-25T13:54:46.777Z,83.83
2018-11-25T13:55:46.987Z,84.13
2018-11-25T13:56:46.888Z,83.93
2018-11-25T13:57:46.787Z,84.34
2018-11-25T13:58:46.664Z,84.44
2018-11-25T13:59:47.222Z,84.59
2018-11-25T14:00:46.816Z,84.69
2018-11-25T14:01:46.634Z,84.07
2018-11-25T14:02:46.627Z,84.17
2018-11-25T14:03:46.836Z,85.00
2018-11-25T14:04:46.592Z,84.89
2018-11-25T14:05:53.016Z,84.79
2018-11-25T14:06:47.790Z,85.00